Time;durP1;ratioP1;P1;durP2;ratioP2;P2;SDS_P1;SDS_P2;PMS_P1;PMS_P2;Temp;Humidity;BMP_temperature;BMP_pressure;BME280_temperature;BME280_humidity;BME280_pressure;Samples;Min_cycle;Max_cycle;Signal;HPM_P1;HPM_P2
2022/10/27 00:02:22;;;;;;;35.50;18.80;;;;;;;8.32;100.00;99464.05;214604;1309;23665;-73
2022/10/27 00:07:24;;;;;;;34.80;20.20;;;;;;;8.30;100.00;99461.00;214796;1309;22476;-73
2022/10/27 00:12:29;;;;;;;38.40;20.70;;;;;;;8.27;100.00;99457.57;214718;1285;24455;-73
2022/10/27 00:17:31;;;;;;;34.20;19.30;;;;;;;8.24;100.00;99458.92;214871;1309;22480;-74
2022/10/27 00:22:33;;;;;;;34.90;19.60;;;;;;;8.23;100.00;99461.65;214844;1303;25223;-73
2022/10/27 00:27:35;;;;;;;38.20;20.70;;;;;;;8.22;100.00;99462.86;214490;1309;22518;-74
2022/10/27 00:32:37;;;;;;;39.70;20.30;;;;;;;8.21;100.00;99463.83;214820;1309;22821;-73
2022/10/27 00:37:39;;;;;;;33.80;20.00;;;;;;;8.23;100.00;99465.59;214594;1308;23210;-73
2022/10/27 00:42:40;;;;;;;28.40;16.10;;;;;;;8.23;100.00;99467.20;214774;1309;25339;-73
2022/10/27 00:47:42;;;;;;;28.60;17.00;;;;;;;8.26;100.00;99472.71;214798;1309;25419;-74
2022/10/27 00:52:52;;;;;;;38.10;20.60;;;;;;;8.29;100.00;99473.65;214549;1309;22598;-74
2022/10/27 00:57:56;;;;;;;31.80;18.00;;;;;;;8.28;100.00;99470.81;214607;1309;23244;-73
2022/10/27 01:02:59;;;;;;;31.50;18.00;;;;;;;8.26;100.00;99473.14;214542;1309;22464;-73
2022/10/27 01:08:03;;;;;;;29.40;17.10;;;;;;;8.25;100.00;99480.66;214706;1309;22938;-73
2022/10/27 01:13:05;;;;;;;27.80;16.50;;;;;;;8.26;100.00;99482.98;214537;1309;25268;-73
2022/10/27 01:18:26;;;;;;;29.80;18.00;;;;;;;8.27;100.00;99486.44;214780;1309;22599;-73
2022/10/27 01:24:06;;;;;;;31.20;18.00;;;;;;;8.25;100.00;99484.61;214569;1309;22518;-73
2022/10/27 01:29:32;;;;;;;34.60;18.40;;;;;;;8.22;100.00;99484.21;214831;1309;22486;-74
2022/10/27 01:34:44;;;;;;;30.60;17.30;;;;;;;8.20;100.00;99483.95;214753;1309;23792;-72
2022/10/27 01:40:01;;;;;;;35.00;20.50;;;;;;;8.22;100.00;99489.77;214719;1308;22481;-73
2022/10/27 01:45:05;;;;;;;30.80;17.70;;;;;;;8.23;100.00;99488.94;214620;1309;24501;-73
2022/10/27 01:50:08;;;;;;;30.60;17.90;;;;;;;8.24;100.00;99488.84;214892;1309;24395;-73
2022/10/27 01:55:29;;;;;;;36.00;20.30;;;;;;;8.27;100.00;99493.98;214761;1309;22478;-74
2022/10/27 02:00:32;;;;;;;;;;;;;;;8.29;100.00;99496.35;214846;1309;22441;-72
2022/10/27 02:05:37;;;;;;;32.30;18.90;;;;;;;8.32;100.00;99499.40;214844;1309;22918;-74
2022/10/27 02:10:48;;;;;;;32.10;17.40;;;;;;;8.38;100.00;99502.06;214586;1308;175990;-74
2022/10/27 02:15:54;;;;;;;32.90;17.70;;;;;;;8.43;100.00;99504.03;214739;1309;22469;-73
2022/10/27 02:21:02;;;;;;;32.80;18.80;;;;;;;8.50;100.00;99506.45;214548;1309;22492;-74
2022/10/27 02:26:31;;;;;;;43.70;20.80;;;;;;;8.59;100.00;99508.50;214622;1308;22489;-74
2022/10/27 02:31:36;;;;;;;33.90;20.00;;;;;;;8.68;100.00;99505.98;214614;1309;22465;-73
2022/10/27 02:36:39;;;;;;;33.50;19.20;;;;;;;8.75;100.00;99507.20;214602;1309;25791;-73
2022/10/27 02:41:40;;;;;;;36.20;20.10;;;;;;;8.82;100.00;99511.89;214783;1308;25267;-74
2022/10/27 02:46:42;;;;;;;38.90;20.00;;;;;;;8.88;100.00;99510.38;214842;1309;22625;-74
2022/10/27 02:51:46;;;;;;;33.80;19.50;;;;;;;8.93;100.00;99507.00;214634;1309;24325;-74
2022/10/27 02:56:48;;;;;;;35.90;20.50;;;;;;;8.97;100.00;99506.95;214687;1300;22532;-72
2022/10/27 03:01:50;;;;;;;36.20;20.30;;;;;;;9.02;100.00;99512.11;214680;1309;25387;-73
2022/10/27 03:06:52;;;;;;;35.20;20.30;;;;;;;9.06;100.00;99518.16;214621;1309;24239;-73
2022/10/27 03:11:54;;;;;;;37.20;21.30;;;;;;;9.12;100.00;99518.67;214614;1309;22480;-73
2022/10/27 03:16:56;;;;;;;36.60;20.60;;;;;;;9.17;100.00;99523.83;214825;1309;22475;-73
2022/10/27 03:21:57;;;;;;;35.40;21.30;;;;;;;9.22;100.00;99535.24;214603;1309;25375;-73
2022/10/27 03:27:00;;;;;;;34.20;20.50;;;;;;;9.25;100.00;99543.06;214787;1309;24350;-74
2022/10/27 03:32:02;;;;;;;35.60;19.10;;;;;;;9.28;100.00;99548.27;214533;1309;22651;-73
2022/10/27 03:37:04;;;;;;;38.10;20.70;;;;;;;9.33;100.00;99546.42;214761;1309;22495;-74
2022/10/27 03:42:05;;;;;;;37.10;21.10;;;;;;;9.35;100.00;99546.52;214745;1304;22476;-73
2022/10/27 03:47:09;;;;;;;30.80;19.20;;;;;;;9.36;100.00;99550.38;214511;1309;26204;-74
2022/10/27 03:52:10;;;;;;;35.40;21.00;;;;;;;9.36;100.00;99554.98;214577;1309;22479;-74
2022/10/27 03:57:12;;;;;;;36.10;19.50;;;;;;;9.37;100.00;99558.63;214569;1309;22511;-74
2022/10/27 04:02:16;;;;;;;35.10;19.80;;;;;;;9.37;100.00;99554.95;214674;1294;22602;-74
2022/10/27 04:07:18;;;;;;;38.30;21.00;;;;;;;9.37;100.00;99555.53;214674;1309;22518;-72
2022/10/27 04:12:19;;;;;;;36.70;20.50;;;;;;;9.35;100.00;99562.95;214733;1309;23222;-74
2022/10/27 04:17:21;;;;;;;42.00;21.70;;;;;;;9.33;100.00;99561.77;214753;1309;25548;-74
2022/10/27 04:22:23;;;;;;;50.30;23.30;;;;;;;9.29;100.00;99564.36;214800;1309;22480;-73
2022/10/27 04:27:25;;;;;;;46.70;23.70;;;;;;;9.25;100.00;99566.96;214506;1309;25351;-73
2022/10/27 04:32:27;;;;;;;48.10;24.40;;;;;;;9.22;100.00;99568.02;214612;1309;22824;-73
2022/10/27 04:37:29;;;;;;;48.10;25.00;;;;;;;9.19;100.00;99576.45;214614;1309;25266;-74
2022/10/27 04:42:32;;;;;;;43.90;23.80;;;;;;;9.15;100.00;99577.65;214818;1309;22580;-74
2022/10/27 04:47:34;;;;;;;52.20;25.30;;;;;;;9.10;100.00;99584.48;214662;1309;22611;-73
2022/10/27 04:52:36;;;;;;;51.10;25.10;;;;;;;9.05;100.00;99583.96;214718;1309;22514;-73
2022/10/27 04:57:42;;;;;;;48.60;25.50;;;;;;;9.01;100.00;99589.77;214789;1309;22504;-74
2022/10/27 05:02:44;;;;;;;48.30;24.00;;;;;;;8.97;100.00;99591.66;214581;1309;22794;-73
2022/10/27 05:07:57;;;;;;;52.40;24.90;;;;;;;8.94;100.00;99588.12;214871;1309;22549;-74
2022/10/27 05:13:00;;;;;;;53.60;24.90;;;;;;;8.92;100.00;99594.84;214497;1309;22471;-73
2022/10/27 05:18:02;;;;;;;45.50;23.50;;;;;;;8.92;100.00;99600.92;214689;1309;22477;-75
2022/10/27 05:23:10;;;;;;;52.40;26.00;;;;;;;8.94;100.00;99605.33;214543;1305;24380;-74
2022/10/27 05:28:13;;;;;;;52.90;25.40;;;;;;;8.97;100.00;99613.95;214692;1309;22539;-74
2022/10/27 05:33:15;;;;;;;53.60;26.00;;;;;;;9.00;100.00;99621.77;214690;1309;22583;-74
2022/10/27 05:38:17;;;;;;;57.20;26.30;;;;;;;9.01;100.00;99628.31;214605;1302;25461;-73
2022/10/27 05:43:19;;;;;;;50.80;25.60;;;;;;;9.01;100.00;99627.61;214669;1282;24258;-74
2022/10/27 05:48:21;;;;;;;49.70;23.70;;;;;;;9.00;100.00;99633.85;215122;1285;25442;-73
2022/10/27 05:53:22;;;;;;;54.60;27.40;;;;;;;8.99;100.00;99637.80;215086;1285;22518;-73
2022/10/27 05:58:24;;;;;;;46.90;24.40;;;;;;;8.99;100.00;99640.80;215381;1284;25342;-76
2022/10/27 06:03:26;;;;;;;40.30;22.40;;;;;;;9.03;100.00;99650.55;215195;1284;22510;-72
2022/10/27 06:08:29;;;;;;;49.40;24.10;;;;;;;9.05;100.00;99649.49;215330;1284;22669;-72
2022/10/27 06:13:30;;;;;;;46.50;24.10;;;;;;;9.07;100.00;99655.70;215359;1277;22507;-76
2022/10/27 06:18:32;;;;;;;39.70;22.30;;;;;;;9.09;100.00;99663.16;215384;1284;24273;-73
2022/10/27 06:23:36;;;;;;;44.50;23.00;;;;;;;9.12;100.00;99671.20;215366;1288;22979;-72
2022/10/27 06:28:38;;;;;;;43.70;22.20;;;;;;;9.14;100.00;99675.42;215446;1284;22651;-71
2022/10/27 06:33:40;;;;;;;43.10;23.60;;;;;;;9.17;100.00;99680.59;215471;1278;22483;-73
2022/10/27 06:38:42;;;;;;;40.10;22.40;;;;;;;9.22;100.00;99685.93;215354;1278;25591;-73
2022/10/27 06:43:45;;;;;;;43.80;23.50;;;;;;;9.26;100.00;99694.94;215225;1285;22602;-73
2022/10/27 06:48:47;;;;;;;44.70;22.40;;;;;;;9.32;100.00;99697.96;215306;1286;23109;-73
2022/10/27 06:53:48;;;;;;;42.80;22.00;;;;;;;9.37;100.00;99702.39;215165;1295;25266;-73
2022/10/27 06:58:50;;;;;;;39.90;21.60;;;;;;;9.42;100.00;99710.06;215293;1285;23260;-73
2022/10/27 07:03:54;;;;;;;41.00;22.00;;;;;;;9.48;100.00;99721.22;215488;1283;22471;-73
2022/10/27 07:08:56;;;;;;;45.50;23.70;;;;;;;9.55;100.00;99729.84;215157;1284;22599;-72
2022/10/27 07:13:58;;;;;;;45.80;21.50;;;;;;;9.67;100.00;99733.98;215229;1294;22562;-73
2022/10/27 07:19:00;;;;;;;42.20;19.60;;;;;;;9.83;100.00;99736.52;215008;1295;22509;-73
2022/10/27 07:24:03;;;;;;;42.20;21.00;;;;;;;9.97;100.00;99734.55;215161;1287;22519;-72
2022/10/27 07:29:05;;;;;;;40.60;20.50;;;;;;;10.11;100.00;99737.20;215196;1286;22475;-73
2022/10/27 07:34:06;;;;;;;43.10;20.20;;;;;;;10.25;100.00;99745.29;215379;1284;22564;-73
2022/10/27 07:39:08;;;;;;;36.10;18.30;;;;;;;10.42;100.00;99750.79;215314;1286;23241;-73
2022/10/27 07:44:10;;;;;;;38.50;19.80;;;;;;;10.59;100.00;99757.79;215284;1284;22467;-73
2022/10/27 07:49:12;;;;;;;47.80;20.40;;;;;;;10.70;100.00;99756.42;215497;1285;22478;-74
2022/10/27 07:54:13;;;;;;;49.50;20.80;;;;;;;10.84;100.00;99765.58;215184;1291;22482;-72
2022/10/27 07:59:15;;;;;;;42.10;18.60;;;;;;;10.98;100.00;99777.49;215351;1285;23743;-73
2022/10/27 08:04:17;;;;;;;45.70;20.50;;;;;;;11.07;100.00;99776.48;215226;1284;22509;-73
2022/10/27 08:09:20;;;;;;;46.30;21.80;;;;;;;11.21;100.00;99781.43;215174;1287;22676;-73
2022/10/27 08:14:22;;;;;;;47.40;21.00;;;;;;;11.35;100.00;99783.15;215075;1295;22510;-73
2022/10/27 08:19:23;;;;;;;46.60;21.00;;;;;;;11.49;100.00;99782.98;215173;1284;22598;-73
2022/10/27 08:24:25;;;;;;;44.00;20.10;;;;;;;11.77;100.00;99788.63;215145;1309;24316;-73
2022/10/27 08:29:27;;;;;;;41.40;20.80;;;;;;;12.03;100.00;99791.61;215117;1294;22609;-73
2022/10/27 08:34:29;;;;;;;40.20;20.30;;;;;;;12.26;100.00;99798.10;215409;1284;22508;-75
2022/10/27 08:39:31;;;;;;;36.40;18.80;;;;;;;12.35;100.00;99802.80;215276;1290;22595;-72
2022/10/27 08:44:49;;;;;;;41.60;20.60;;;;;;;12.49;100.00;99810.53;215292;1277;24284;-73
2022/10/27 08:49:57;;;;;;;43.50;21.20;;;;;;;12.58;100.00;99815.11;215377;1283;22543;-74
2022/10/27 08:55:11;;;;;;;46.30;21.20;;;;;;;12.84;100.00;99816.71;215284;1283;22507;-72
2022/10/27 09:00:14;;;;;;;41.20;19.40;;;;;;;13.06;100.00;99812.70;215164;1284;25344;-73
2022/10/27 09:05:34;;;;;;;41.50;19.40;;;;;;;13.16;100.00;99811.13;215154;1285;23457;-74
2022/10/27 09:10:48;;;;;;;41.70;21.60;;;;;;;13.21;100.00;99811.19;215311;1288;24878;-74
2022/10/27 09:15:53;;;;;;;37.40;19.10;;;;;;;13.32;100.00;99816.77;215380;1284;25314;-73
2022/10/27 09:20:57;;;;;;;34.90;19.10;;;;;;;13.47;100.00;99818.95;215315;1299;22513;-73
2022/10/27 09:25:59;;;;;;;32.80;16.70;;;;;;;13.59;100.00;99821.05;215663;1309;25429;-72
2022/10/27 09:31:03;;;;;;;43.10;20.50;;;;;;;13.70;100.00;99824.13;215052;1285;22488;-72
2022/10/27 09:36:13;;;;;;;36.40;19.40;;;;;;;13.95;100.00;99822.43;215180;1294;22482;-72
2022/10/27 09:41:16;;;;;;;39.90;19.10;;;;;;;14.24;100.00;99829.45;215281;1304;23941;-71
2022/10/27 09:46:23;;;;;;;34.90;19.60;;;;;;;14.49;100.00;99834.06;215009;1296;22511;-72
2022/10/27 09:51:49;;;;;;;35.10;18.20;;;;;;;14.70;100.00;99835.04;215240;1295;22603;-73
2022/10/27 09:56:51;;;;;;;36.70;17.80;;;;;;;14.93;100.00;99831.70;215075;1284;24326;-73
2022/10/27 10:01:58;;;;;;;34.10;18.30;;;;;;;15.11;100.00;99839.44;215077;1284;24242;-72
2022/10/27 10:07:04;;;;;;;31.40;17.60;;;;;;;15.30;100.00;99841.16;214903;1284;22599;-73
2022/10/27 10:12:15;;;;;;;34.90;17.40;;;;;;;15.49;100.00;99839.39;215108;1285;22594;-73
2022/10/27 10:17:27;;;;;;;30.30;16.80;;;;;;;15.68;100.00;99832.34;215253;1284;22605;-73
2022/10/27 10:22:32;;;;;;;28.20;17.60;;;;;;;15.86;100.00;99829.40;215170;1284;22489;-73
2022/10/27 10:27:34;;;;;;;28.80;16.40;;;;;;;16.00;100.00;99824.46;215109;1292;22503;-72
2022/10/27 10:32:36;;;;;;;20.60;12.40;;;;;;;16.14;100.00;99828.02;214907;1309;23945;-72
2022/10/27 10:37:45;;;;;;;24.30;13.40;;;;;;;16.20;99.83;99827.15;215330;1284;24230;-71
2022/10/27 10:42:58;;;;;;;25.00;13.60;;;;;;;16.27;99.29;99820.32;215231;1277;22649;-71
2022/10/27 10:48:28;;;;;;;21.60;12.80;;;;;;;16.39;99.12;99820.08;215453;1284;27300;-72
2022/10/27 10:53:52;;;;;;;18.20;11.20;;;;;;;16.53;98.70;99820.08;214993;1284;25256;-72
2022/10/27 10:59:09;;;;;;;21.50;12.00;;;;;;;16.74;98.71;99814.48;215097;1290;25179;-72
2022/10/27 11:04:16;;;;;;;22.20;13.30;;;;;;;16.94;97.96;99812.63;215269;1283;22527;-72
2022/10/27 11:09:17;;;;;;;20.20;11.80;;;;;;;17.11;97.88;99816.84;215263;1284;25425;-71
2022/10/27 11:14:23;;;;;;;19.30;11.70;;;;;;;17.32;97.39;99821.16;215132;1285;25153;-72
2022/10/27 11:19:30;;;;;;;20.80;12.50;;;;;;;17.50;96.95;99821.70;216293;1281;22486;-73
2022/10/27 11:24:41;;;;;;;14.00;8.70;;;;;;;17.62;96.38;99814.29;215639;1284;22472;-73
2022/10/27 11:30:00;;;;;;;16.70;8.50;;;;;;;17.63;92.98;99813.05;215387;1284;24344;-72
2022/10/27 11:35:12;;;;;;;14.90;8.40;;;;;;;17.56;92.46;99807.36;215051;1285;23759;-72
2022/10/27 11:40:28;;;;;;;11.80;8.00;;;;;;;17.58;92.71;99806.64;215269;1285;22486;-72
2022/10/27 11:45:42;;;;;;;17.20;8.70;;;;;;;17.65;92.70;99806.17;215360;1285;22485;-72
2022/10/27 11:50:52;;;;;;;17.40;9.00;;;;;;;17.69;92.34;99806.01;215078;1297;23802;-72
2022/10/27 11:56:07;;;;;;;23.40;12.00;;;;;;;17.73;92.02;99807.30;215052;1292;24080;-72
2022/10/27 12:01:37;;;;;;;10.20;6.60;;;;;;;17.76;91.34;99807.15;215278;1281;22481;-72
2022/10/27 12:07:13;;;;;;;15.80;8.90;;;;;;;17.81;90.84;99804.56;215260;1287;24211;-72
2022/10/27 12:12:20;;;;;;;12.50;7.90;;;;;;;17.88;90.65;99799.82;215246;1293;23031;-72
2022/10/27 12:17:47;;;;;;;15.20;8.40;;;;;;;17.96;90.55;99790.64;215092;1294;22475;-71
2022/10/27 12:22:59;;;;;;;13.00;7.40;;;;;;;18.00;90.55;99792.67;215147;1289;22579;-73
2022/10/27 12:28:06;;;;;;;12.20;6.80;;;;;;;18.02;89.75;99787.21;215100;1278;24763;-71
2022/10/27 12:33:46;;;;;;;13.00;8.80;;;;;;;18.03;89.41;99788.34;215102;1287;22497;-70
2022/10/27 12:39:00;;;;;;;11.60;7.70;;;;;;;18.22;89.67;99786.16;214824;1285;23477;-70
2022/10/27 12:44:22;;;;;;;11.80;7.20;;;;;;;18.33;89.03;99783.80;215146;1278;25449;-71
2022/10/27 12:49:55;;;;;;;11.20;7.00;;;;;;;18.28;88.87;99787.58;215040;1283;24827;-70
2022/10/27 12:55:15;;;;;;;13.10;7.20;;;;;;;18.37;88.82;99791.02;215115;1277;22465;-71
2022/10/27 13:00:19;;;;;;;11.50;7.30;;;;;;;18.40;87.75;99792.18;215277;1284;26522;-71
2022/10/27 13:05:38;;;;;;;10.00;6.00;;;;;;;18.26;87.39;99784.80;215274;1285;22531;-71
2022/10/27 13:11:06;;;;;;;12.60;7.30;;;;;;;18.14;87.66;99787.53;215217;1301;24079;-72
2022/10/27 13:16:46;;;;;;;16.60;6.40;;;;;;;18.09;87.89;99788.42;215206;1293;25246;-75
2022/10/27 13:22:01;;;;;;;;;;;;;;;18.06;87.70;99787.02;215041;1298;22503;-73
2022/10/27 13:27:07;;;;;;;10.10;6.70;;;;;;;18.06;87.69;99786.66;215184;1281;23750;-73
2022/10/27 13:32:18;;;;;;;11.20;6.50;;;;;;;18.18;87.93;99786.82;215244;1278;24670;-72
2022/10/27 13:37:38;;;;;;;10.30;7.30;;;;;;;18.35;87.69;99786.36;215157;1277;22476;-71
2022/10/27 13:42:42;;;;;;;9.40;5.70;;;;;;;18.55;87.56;99790.55;215107;1285;24586;-71
2022/10/27 13:48:07;;;;;;;8.70;6.00;;;;;;;18.72;87.12;99782.10;215031;1281;22478;-72
2022/10/27 13:53:15;;;;;;;5.10;4.00;;;;;;;18.86;86.21;99784.25;214994;1277;22535;-72
2022/10/27 13:58:20;;;;;;;7.50;4.00;;;;;;;18.80;84.24;99783.55;215052;1285;26424;-71
2022/10/27 14:03:37;;;;;;;8.50;3.20;;;;;;;18.66;83.76;99786.73;214911;1285;24084;-72
2022/10/27 14:08:50;;;;;;;7.40;4.00;;;;;;;18.57;84.33;99790.48;214475;1303;130704;-72
2022/10/27 14:14:04;;;;;;;8.20;4.30;;;;;;;18.51;84.14;99794.02;214648;1310;23054;-71
2022/10/27 14:19:43;;;;;;;5.80;3.30;;;;;;;18.36;83.60;99792.39;214783;1298;25287;-71
2022/10/27 14:24:50;;;;;;;7.70;3.90;;;;;;;18.17;83.67;99789.30;214099;1285;22599;-71
2022/10/27 14:30:04;;;;;;;17.90;12.30;;;;;;;18.01;83.90;99791.73;214786;1309;22479;-71
2022/10/27 14:35:35;;;;;;;18.00;11.70;;;;;;;17.92;84.40;99792.47;214813;1309;25374;-71
2022/10/27 14:40:38;;;;;;;7.40;5.90;;;;;;;17.83;84.21;99794.95;214337;1310;22538;-71
2022/10/27 14:45:41;;;;;;;8.30;5.90;;;;;;;17.73;84.44;99795.05;214629;1301;25318;-72
2022/10/27 14:50:44;;;;;;;11.30;6.70;;;;;;;17.63;84.53;99787.36;214690;1303;22580;-71
2022/10/27 14:56:15;;;;;;;11.00;6.20;;;;;;;17.49;84.47;99788.20;214747;1309;22471;-72
2022/10/27 15:01:19;;;;;;;11.50;5.60;;;;;;;17.31;84.64;99790.73;214860;1309;22900;-72
2022/10/27 15:06:32;;;;;;;10.30;5.90;;;;;;;17.17;85.13;99784.91;214780;1309;22669;-71
2022/10/27 15:11:34;;;;;;;8.10;5.40;;;;;;;16.99;85.29;99783.20;214912;1298;22789;-71
2022/10/27 15:16:36;;;;;;;10.90;6.00;;;;;;;16.80;85.48;99782.09;214917;1309;22622;-71
2022/10/27 15:21:38;;;;;;;18.60;11.60;;;;;;;16.61;85.86;99780.02;214625;1304;22489;-71
2022/10/27 15:26:40;;;;;;;15.70;8.00;;;;;;;16.44;86.20;99783.17;214637;1310;25255;-72
2022/10/27 15:31:43;;;;;;;10.40;6.50;;;;;;;16.25;86.43;99778.73;214699;1310;22487;-72
2022/10/27 15:36:45;;;;;;;13.70;6.00;;;;;;;16.05;86.64;99774.57;214824;1309;22478;-72
2022/10/27 15:41:50;;;;;;;7.90;5.40;;;;;;;15.87;86.97;99772.38;214855;1309;24762;-72
2022/10/27 15:46:52;;;;;;;8.80;5.70;;;;;;;15.66;87.21;99768.23;214931;1292;24443;-70
2022/10/27 15:52:01;;;;;;;13.10;6.50;;;;;;;15.45;87.52;99769.59;215078;1309;25264;-71
2022/10/27 15:57:25;;;;;;;8.70;5.80;;;;;;;15.24;87.69;99767.77;215116;1309;23365;-72
2022/10/27 16:02:26;;;;;;;11.40;6.20;;;;;;;15.01;87.97;99768.95;214943;1309;25324;-71
2022/10/27 16:07:29;;;;;;;10.30;6.10;;;;;;;14.81;88.31;99770.63;214808;1294;25472;-72
2022/10/27 16:12:41;;;;;;;12.90;7.00;;;;;;;14.60;88.66;99770.69;214787;1289;22519;-72
2022/10/27 16:17:46;;;;;;;10.20;7.60;;;;;;;14.40;88.85;99773.10;214864;1309;22537;-72
2022/10/27 16:22:48;;;;;;;14.30;8.30;;;;;;;14.21;89.14;99776.09;214857;1303;24257;-72
2022/10/27 16:27:51;;;;;;;17.20;9.30;;;;;;;14.04;89.50;99775.75;214874;1297;22496;-72
2022/10/27 16:33:02;;;;;;;13.50;8.80;;;;;;;13.88;89.86;99780.49;214643;1308;22471;-71
2022/10/27 16:38:04;;;;;;;14.90;9.80;;;;;;;13.72;90.15;99786.20;214948;1308;22608;-71
2022/10/27 16:43:20;;;;;;;14.70;10.00;;;;;;;13.58;90.42;99789.73;214686;1309;22476;-71
2022/10/27 16:48:22;;;;;;;25.10;15.50;;;;;;;13.43;90.67;99791.41;214757;1297;23707;-71
2022/10/27 16:53:24;;;;;;;16.90;10.90;;;;;;;13.28;91.02;99796.34;214728;1309;22535;-71
2022/10/27 16:58:26;;;;;;;15.60;10.70;;;;;;;13.15;91.35;99797.36;214694;1309;24429;-71
2022/10/27 17:03:28;;;;;;;17.50;10.70;;;;;;;13.02;91.67;99792.66;214531;1310;24411;-72
2022/10/27 17:08:32;;;;;;;23.90;12.40;;;;;;;12.91;91.94;99796.55;214645;1293;22490;-71
2022/10/27 17:13:34;;;;;;;19.50;11.60;;;;;;;12.79;92.18;99795.16;214597;1309;22691;-72
2022/10/27 17:18:36;;;;;;;23.60;14.30;;;;;;;12.69;92.53;99795.23;214723;1309;22532;-71
2022/10/27 17:23:41;;;;;;;35.90;21.20;;;;;;;12.60;92.81;99794.30;214624;1310;22602;-71
2022/10/27 17:28:48;;;;;;;37.30;21.70;;;;;;;12.52;93.05;99802.08;214465;1309;22964;-71
2022/10/27 17:33:54;;;;;;;45.80;30.70;;;;;;;12.42;93.34;99805.03;214639;1295;22475;-72
2022/10/27 17:38:58;;;;;;;46.50;29.60;;;;;;;12.34;93.66;99806.84;214527;1309;22559;-71
2022/10/27 17:43:59;;;;;;;54.20;34.30;;;;;;;12.26;93.95;99813.52;214890;1301;22494;-74
2022/10/27 17:49:01;;;;;;;55.50;34.80;;;;;;;12.19;94.33;99821.60;214878;1295;25359;-69
2022/10/27 17:54:03;;;;;;;58.10;33.50;;;;;;;12.13;94.69;99819.79;214801;1308;22488;-71
2022/10/27 17:59:06;;;;;;;70.30;38.80;;;;;;;12.07;95.07;99820.23;214514;1309;22563;-71
2022/10/27 18:04:10;;;;;;;80.10;40.50;;;;;;;12.03;95.45;99818.84;214463;1309;22481;-71
2022/10/27 18:09:12;;;;;;;79.00;39.60;;;;;;;11.98;95.54;99824.23;214521;1309;25341;-71
2022/10/27 18:14:19;;;;;;;82.30;40.70;;;;;;;11.91;95.70;99820.13;214530;1310;22497;-71
2022/10/27 18:19:21;;;;;;;72.90;40.00;;;;;;;11.85;95.91;99818.42;214685;1310;22488;-70
2022/10/27 18:24:23;;;;;;;67.60;36.80;;;;;;;11.77;96.17;99820.16;214455;1307;22466;-71
2022/10/27 18:29:25;;;;;;;63.50;33.40;;;;;;;11.68;96.22;99820.59;214562;1287;23140;-72
2022/10/27 18:34:27;;;;;;;49.60;30.40;;;;;;;11.59;96.46;99820.70;214727;1310;22597;-71
2022/10/27 18:39:29;;;;;;;51.90;29.60;;;;;;;11.52;96.55;99816.14;214401;1309;24462;-71
2022/10/27 18:44:31;;;;;;;56.70;30.30;;;;;;;11.42;96.82;99816.52;214634;1309;22713;-71
2022/10/27 18:49:33;;;;;;;52.10;29.40;;;;;;;11.36;97.05;99818.08;214644;1309;25335;-70
2022/10/27 18:54:50;;;;;;;64.00;31.60;;;;;;;11.28;97.29;99811.48;214710;1295;22520;-71
2022/10/27 18:59:52;;;;;;;51.80;29.60;;;;;;;11.24;97.48;99814.48;214666;1309;23931;-72
2022/10/27 19:04:55;;;;;;;50.00;29.50;;;;;;;11.22;97.91;99814.90;214700;1309;25240;-70
2022/10/27 19:09:57;;;;;;;51.90;29.80;;;;;;;11.19;97.83;99811.79;214763;1309;22472;-71
2022/10/27 19:14:59;;;;;;;58.30;33.20;;;;;;;11.14;97.99;99811.19;214858;1308;23810;-72
2022/10/27 19:20:01;;;;;;;56.00;31.30;;;;;;;11.09;98.27;99813.80;214691;1281;23770;-70
2022/10/27 19:25:03;;;;;;;58.40;31.80;;;;;;;11.06;98.52;99810.97;214776;1309;23212;-71
2022/10/27 19:30:06;;;;;;;63.50;33.90;;;;;;;11.03;98.62;99806.99;214716;1304;25389;-72
2022/10/27 19:35:08;;;;;;;65.00;35.40;;;;;;;10.99;98.56;99808.01;214622;1309;22470;-70
2022/10/27 19:40:11;;;;;;;62.40;32.90;;;;;;;10.95;98.78;99805.84;214616;1307;22534;-72
2022/10/27 19:45:13;;;;;;;57.20;30.70;;;;;;;10.92;99.09;99806.21;214609;1295;22684;-72
2022/10/27 19:50:15;;;;;;;51.90;30.00;;;;;;;10.89;99.24;99806.80;214547;1309;22477;-71
2022/10/27 19:55:17;;;;;;;56.20;28.80;;;;;;;10.88;99.84;99803.59;214645;1309;22554;-72
2022/10/27 20:00:18;;;;;;;51.90;29.10;;;;;;;10.86;99.87;99802.35;214823;1309;22609;-72
2022/10/27 20:05:22;;;;;;;63.20;32.40;;;;;;;10.84;100.00;99804.42;215050;1309;22953;-71
2022/10/27 20:10:24;;;;;;;62.10;33.40;;;;;;;10.82;100.00;99801.91;214721;1309;22496;-72
2022/10/27 20:15:26;;;;;;;65.70;35.10;;;;;;;10.77;100.00;99801.20;214930;1308;22505;-73
2022/10/27 20:20:28;;;;;;;52.60;28.40;;;;;;;10.72;100.00;99804.84;214870;1308;22484;-72
2022/10/27 20:25:29;;;;;;;52.70;27.60;;;;;;;10.69;100.00;99804.12;215007;1309;22465;-72
2022/10/27 20:30:31;;;;;;;59.60;31.20;;;;;;;10.66;100.00;99805.99;214798;1309;23725;-71
2022/10/27 20:35:33;;;;;;;50.80;27.50;;;;;;;10.62;100.00;99803.13;214616;1309;25472;-71
2022/10/27 20:40:36;;;;;;;52.20;28.00;;;;;;;10.60;100.00;99805.55;214748;1309;24465;-71
2022/10/27 20:45:38;;;;;;;55.00;29.20;;;;;;;10.59;100.00;99804.73;214640;1309;22999;-71
2022/10/27 20:50:39;;;;;;;48.40;27.50;;;;;;;10.54;100.00;99808.90;214876;1309;25270;-71
2022/10/27 20:55:41;;;;;;;52.00;28.20;;;;;;;10.51;100.00;99807.39;214966;1295;22479;-70
2022/10/27 21:00:43;;;;;;;50.90;26.10;;;;;;;10.48;100.00;99806.90;214892;1309;22476;-71
2022/10/27 21:05:45;;;;;;;53.90;27.30;;;;;;;10.48;100.00;99801.64;214899;1308;25464;-71
2022/10/27 21:10:47;;;;;;;57.00;30.80;;;;;;;10.44;100.00;99801.46;214618;1309;24350;-72
2022/10/27 21:15:58;;;;;;;59.30;30.80;;;;;;;10.38;100.00;99796.73;214542;1309;22494;-72
2022/10/27 21:21:09;;;;;;;67.60;32.00;;;;;;;10.34;100.00;99790.95;214792;1303;24309;-71
2022/10/27 21:26:12;;;;;;;64.90;32.50;;;;;;;10.30;100.00;99788.04;214788;1309;24513;-71
2022/10/27 21:31:13;;;;;;;61.40;30.10;;;;;;;10.26;100.00;99786.64;214745;1309;24243;-71
2022/10/27 21:36:16;;;;;;;83.30;34.60;;;;;;;10.25;100.00;99783.05;214641;1309;22500;-72
2022/10/27 21:41:20;;;;;;;68.00;33.50;;;;;;;10.23;100.00;99781.27;214776;1309;22643;-71
2022/10/27 21:46:25;;;;;;;70.40;34.50;;;;;;;10.19;100.00;99778.89;214952;1309;24398;-71
2022/10/27 21:51:28;;;;;;;60.30;30.20;;;;;;;10.16;100.00;99776.63;214770;1309;22651;-71
2022/10/27 21:56:33;;;;;;;72.00;35.50;;;;;;;10.17;100.00;99777.33;215154;1309;22595;-71
2022/10/27 22:01:35;;;;;;;57.30;29.40;;;;;;;10.17;100.00;99778.98;214823;1309;22472;-70
2022/10/27 22:06:37;;;;;;;60.10;31.40;;;;;;;10.19;100.00;99783.23;214806;1308;22505;-71
2022/10/27 22:11:39;;;;;;;60.30;30.80;;;;;;;10.19;100.00;99780.77;214962;1309;22570;-71
2022/10/27 22:16:41;;;;;;;71.20;34.30;;;;;;;10.17;100.00;99778.56;214890;1285;23246;-71
2022/10/27 22:21:42;;;;;;;64.50;33.10;;;;;;;10.14;100.00;99774.95;214978;1309;22600;-71
2022/10/27 22:26:44;;;;;;;59.10;30.50;;;;;;;10.11;100.00;99772.96;214904;1308;23942;-71
2022/10/27 22:31:46;;;;;;;64.20;32.30;;;;;;;10.08;100.00;99778.04;214468;1311;22514;-71
2022/10/27 22:36:48;;;;;;;70.00;35.60;;;;;;;10.07;100.00;99781.19;214497;1301;22489;-71
2022/10/27 22:41:49;;;;;;;72.20;34.80;;;;;;;10.03;100.00;99782.45;214776;1308;25251;-72
2022/10/27 22:46:51;;;;;;;73.20;34.50;;;;;;;10.01;100.00;99781.48;214893;1295;22509;-72
2022/10/27 22:51:53;;;;;;;71.10;34.90;;;;;;;9.97;100.00;99782.31;214817;1304;22482;-71
2022/10/27 22:56:55;;;;;;;68.70;33.70;;;;;;;9.93;100.00;99783.57;214710;1309;22613;-71
2022/10/27 23:01:57;;;;;;;69.40;34.80;;;;;;;9.90;100.00;99782.21;214562;1309;23377;-71
2022/10/27 23:06:59;;;;;;;74.30;35.20;;;;;;;9.87;100.00;99784.98;214633;1309;22565;-72
2022/10/27 23:12:02;;;;;;;68.00;34.80;;;;;;;9.83;100.00;99779.45;214528;1297;22479;-71